Πλησιέστερες Αναφορές METAR

 

LGTS - Thessaloniki/Makedonia-Elev 7m
Απόσταση από σταθμό: Ν 13km
Ενημερώθηκε: 20/06/2018 09:50
Διάσπαρτα Νέφη
Διάσπαρτα Νέφη
 Ανεμοι από ΒΔ
Ανεμος: ΒΔ 17 km/h
Θερμοκρασία: 25°C
Σημείο Δρόσου: 15°C
Υγρασία: 54%
Βαρόμετρο: 1017 hPa
Νέφωση: Διάσπαρτα Νέφη
Ορατότητα: 10 km
Λεπτομέρειες Νεφών: Διάσπαρτα Νέφη 762 m
2018/06/20 06:50 LGTS 200650Z 31009KT 9999 FEW025 25/15 Q1017 NOSIG
LGAV - Athens/Elef. Venizelos-Elev 94m
Απόσταση από σταθμό: ΝΝΑ 312km
Ενημερώθηκε: 20/06/2018 09:50
Διάσπαρτα Νέφη
Διάσπαρτα Νέφη
 Ανεμοι από ΒΒΑ
Ανεμος: ΒΒΑ 31 km/h
Θερμοκρασία: 27°C
Σημείο Δρόσου: 12°C
Υγρασία: 39%
Βαρόμετρο: 1015 hPa
Νέφωση: Διάσπαρτα Νέφη
Ορατότητα: 10 km
Λεπτομέρειες Νεφών: Διάσπαρτα Νέφη 914 m
2018/06/20 06:50 LGAV 200650Z 03017KT 9999 FEW030 27/12 Q1015 NOSIG
 
LGAL - Alexandroupolis-Elev 3m
Απόσταση από σταθμό: Α 251km
Ενημερώθηκε: 20/06/2018 09:50
Αίθριος
Αίθριος
 Ανεμοι από ΒΒΑ
Ανεμος: ΒΒΑ 30 km/h
Θερμοκρασία: 27°C
Δείκτης Δυσφορίας: 28°C
Σημείο Δρόσου: 16°C
Υγρασία: 51%
Βαρόμετρο: 1015 hPa
Περίληψη: Αίθριος
Ορατότητα: πάνω από 10 km
2018/06/20 06:50 LGAL 200650Z 02016KT CAVOK 27/16 Q1015
LGKV - Kavala/Crysoupolis-Elev 5m
Απόσταση από σταθμό: ΑΒΑ 144km
Ενημερώθηκε: 20/06/2018 09:50
Αίθριος
Αίθριος
 Ανεμοι από ΝΔ
Ανεμος: ΝΔ 9 km/h
Θερμοκρασία: 26°C
Σημείο Δρόσου: 16°C
Υγρασία: 54%
Βαρόμετρο: 1016 hPa
Περίληψη: Αίθριος
Ορατότητα: πάνω από 10 km
2018/06/20 06:50 LGKV 200650Z 23005KT CAVOK 26/16 Q1016
 
LGSK - Skiathos Island-Elev 15m
Απόσταση από σταθμό: ΝΝΑ 168km
Ενημερώθηκε: 20/06/2018 09:50
Διάσπαρτα Νέφη
Διάσπαρτα Νέφη
 Ανεμοι από Β
Ανεμος: Β 19 km/h
Θερμοκρασία: 26°C
Σημείο Δρόσου: 20°C
Υγρασία: 70%
Βαρόμετρο: 1015 hPa
Νέφωση: Διάσπαρτα Νέφη
Ορατότητα: 10 km
Λεπτομέρειες Νεφών: Διάσπαρτα Νέφη 457 m
2018/06/20 06:50 LGSK 200650Z 36010KT 9999 FEW015 26/20 Q1015
LGLM - Limnos Island-Elev 5m
Απόσταση από σταθμό: ΑΝΑ 210km
Ενημερώθηκε: 20/06/2018 09:50
Αίθριος
Αίθριος
 Ανεμοι από ΒΒΑ
Ανεμος: ΒΒΑ 22 km/h
Θερμοκρασία: 26°C
Σημείο Δρόσου: 16°C
Υγρασία: 54%
Βαρόμετρο: 1015 hPa
Περίληψη: Αίθριος
Ορατότητα: πάνω από 10 km
2018/06/20 06:50 LGLM 200650Z 02012KT CAVOK 26/16 Q1015
 
LGMT - Mitilini Island-Elev 17m
Απόσταση από σταθμό: ΑΝΑ 358km
Ενημερώθηκε: 20/06/2018 09:50
Αίθριος
Αίθριος
 Ανεμοι από Β
Ανεμος: Β 9 km/h
Θερμοκρασία: 25°C
Σημείο Δρόσου: 19°C
Υγρασία: 69%
Βαρόμετρο: 1014 hPa
Περίληψη: Αίθριος
Ορατότητα: πάνω από 10 km
2018/06/20 06:50 LGMT 200650Z 35005KT 300V060 CAVOK 25/19 Q1014
LGSY - Skiros Island-Elev 15m
Απόσταση από σταθμό: ΝΑ 227km
Ενημερώθηκε: 20/06/2018 09:50
Αίθριος
Αίθριος
 Ανεμοι από Β
Ανεμος: Β 22 km/h
Θερμοκρασία: 25°C
Σημείο Δρόσου: 19°C
Υγρασία: 69%
Βαρόμετρο: 1015 hPa
Περίληψη: Αίθριος
Ορατότητα: πάνω από 10 km
2018/06/20 06:50 LGSY 200650Z 01012KT CAVOK 25/19 Q1015 RMK FEW080 BKN180 BLU
 
LGKZ - Kozani-Elev 628m
Απόσταση από σταθμό: ΔΝΔ 102km
Ενημερώθηκε: 20/06/2018 09:50
Διάσπαρτα Νέφη
Διάσπαρτα Νέφη
 Ανεμοι από Β
Ανεμος: Β 19 km/h
Θερμοκρασία: 22°C
Σημείο Δρόσου: 14°C
Υγρασία: 61%
Βαρόμετρο: 1020 hPa
Νέφωση: Διάσπαρτα Νέφη
Ορατότητα: 10 km
Λεπτομέρειες Νεφών: Διάσπαρτα Νέφη 2134 m
2018/06/20 06:50 LGKZ 200650Z 35010KT 9999 FEW070 22/14 Q1020
LGIO - Ioannina-Elev 476m
Απόσταση από σταθμό: ΔΝΔ 209km
Ενημερώθηκε: 20/06/2018 09:50
Μερικώς νεφελώδης
Μερικώς νεφελώδης
 Ανεμοι από μεταβλητός
Ανεμος: μεταβλητός 0 km/h
Θερμοκρασία: 18°C
Σημείο Δρόσου: 15°C
Υγρασία: 83%
Βαρόμετρο: 1019 hPa
Νέφωση: Μερικώς νεφελώδης
Ορατότητα: 10 km
Λεπτομέρειες Νεφών: Σχεδόν νεφελώδης 1067 m
Μερικώς νεφελώδης 2438 m
2018/06/20 06:50 LGIO 200650Z /////KT 9999 BKN035 SCT080 18/15 Q1019
 
LGZA - Zakinthos-Elev 3m
Απόσταση από σταθμό: ΝΝΔ 367km
Ενημερώθηκε: 20/06/2018 09:50
Σχεδόν νεφελώδης
Σχεδόν νεφελώδης
 Ανεμοι από Β
Ανεμος: Β 9 km/h
Θερμοκρασία: 27°C
Δείκτης Δυσφορίας: 29°C
Σημείο Δρόσου: 21°C
Υγρασία: 70%
Βαρόμετρο: 1016 hPa
Νέφωση: Σχεδόν νεφελώδης
Ορατότητα: 10 km
Λεπτομέρειες Νεφών: Διάσπαρτα Νέφη 914 m
Σχεδόν νεφελώδης 2134 m
2018/06/20 06:50 LGZA 200650Z 36005KT 9999 FEW030 BKN070 27/21 Q1016
LGKR - Corfu Island-Elev 2m
Απόσταση από σταθμό: ΔΝΔ 282km
Ενημερώθηκε: 20/06/2018 09:50
Σχεδόν νεφελώδης
Σχεδόν νεφελώδης
 Ανεμοι από άπνοια
Ανεμος: άπνοια
Θερμοκρασία: 25°C
Σημείο Δρόσου: 19°C
Υγρασία: 69%
Βαρόμετρο: 1016 hPa
Νέφωση: Σχεδόν νεφελώδης
Ορατότητα: 10 km
Λεπτομέρειες Νεφών: Διάσπαρτα Νέφη 1219 m
Σχεδόν νεφελώδης 2438 m
2018/06/20 06:50 LGKR 200650Z 00000KT 9999 FEW040 BKN080 25/19 Q1016 NOSIG
 
LGSO - Syros Island-Elev 72m
Απόσταση από σταθμό: ΝΝΑ 397km
Ενημερώθηκε: 20/06/2018 09:50
Διάσπαρτα Νέφη
Διάσπαρτα Νέφη
 Ανεμοι από Β
Ανεμος: Β 19 km/h
Θερμοκρασία: 25°C
Σημείο Δρόσου: 18°C
Υγρασία: 65%
Βαρόμετρο: 1014 hPa
Νέφωση: Διάσπαρτα Νέφη
Ορατότητα: 10 km
Λεπτομέρειες Νεφών: Διάσπαρτα Νέφη 549 m
2018/06/20 06:50 LGSO 200650Z 35010KT 9999 FEW018 25/18 Q1014
LGMK - Mikonos Island-Elev 123m
Απόσταση από σταθμό: ΝΝΑ 412km
Ενημερώθηκε: 20/06/2018 09:50
Διάσπαρτα Νέφη
Διάσπαρτα Νέφη
 Ανεμοι από Β
Ανεμος: Β 17 km/h
Θερμοκρασία: 25°C
Σημείο Δρόσου: 20°C
Υγρασία: 74%
Βαρόμετρο: 1013 hPa
Νέφωση: Διάσπαρτα Νέφη
Ορατότητα: 10 km
Λεπτομέρειες Νεφών: Διάσπαρτα Νέφη 305 m
2018/06/20 06:50 LGMK 200650Z 01009KT 9999 FEW010 25/20 Q1013
 
LGSR - Santorini Island-Elev 40m
Απόσταση από σταθμό: ΝΝΑ 520km
Ενημερώθηκε: 20/06/2018 09:50
Διάσπαρτα Νέφη
Διάσπαρτα Νέφη
 Ανεμοι από Β
Ανεμος: Β 19 km/h
Θερμοκρασία: 26°C
Σημείο Δρόσου: 19°C
Υγρασία: 65%
Βαρόμετρο: 1013 hPa
Νέφωση: Διάσπαρτα Νέφη
Ορατότητα: 10 km
Λεπτομέρειες Νεφών: Διάσπαρτα Νέφη 762 m
2018/06/20 06:50 LGSR 200650Z 36010KT 9999 FEW025 26/19 Q1013
LGKL - Kalamata-Elev 8m
Απόσταση από σταθμό: Ν 405km
Ενημερώθηκε: 20/06/2018 09:50
Μερικώς νεφελώδης
Μερικώς νεφελώδης
 Ανεμοι από ΒΒΔ
Ανεμος: ΒΒΔ 15 km/h
Θερμοκρασία: 26°C
Σημείο Δρόσου: 15°C
Υγρασία: 51%
Βαρόμετρο: 1015 hPa
Νέφωση: Μερικώς νεφελώδης
Ορατότητα: 10 km
Λεπτομέρειες Νεφών: Διάσπαρτα Νέφη 1067 m
Μερικώς νεφελώδης 2438 m
2018/06/20 06:50 LGKL 200650Z 34008KT 9999 FEW035 SCT080 26/15 Q1015
 
LGIR - Iraklion/Crete-Elev 5m
Απόσταση από σταθμό: ΝΝΑ 622km
Ενημερώθηκε: 20/06/2018 09:50
Διάσπαρτα Νέφη
Διάσπαρτα Νέφη
 Ανεμοι από ΒΔ
Ανεμος: ΒΔ 20 km/h
Θερμοκρασία: 26°C
Σημείο Δρόσου: 20°C
Υγρασία: 70%
Βαρόμετρο: 1013 hPa
Νέφωση: Διάσπαρτα Νέφη
Ορατότητα: 10 km
Λεπτομέρειες Νεφών: Διάσπαρτα Νέφη 762 m
2018/06/20 06:50 LGIR 200650Z 31011KT 9999 FEW025 26/20 Q1013 NOSIG
LGRP - Rhodes-Elev 5m
Απόσταση από σταθμό: ΝΑ 649km
Ενημερώθηκε: 20/06/2018 09:50
Διάσπαρτα Νέφη
Διάσπαρτα Νέφη
 Ανεμοι από Δ
Ανεμος: Δ 19 km/h
Θερμοκρασία: 25°C
Σημείο Δρόσου: 24°C
Υγρασία: 94%
Βαρόμετρο: 1011 hPa
Νέφωση: Διάσπαρτα Νέφη
Ορατότητα: 10 km
Λεπτομέρειες Νεφών: Διάσπαρτα Νέφη 305 m
2018/06/20 06:50 LGRP 200650Z 26010KT 9999 FEW010 25/24 Q1011 NOSIG
 
LWOH - Ohrid/FYROM-Elev 761m
Απόσταση από σταθμό: ΔΒΔ 188km
Ενημερώθηκε: 20/06/2018 10:00
Διάσπαρτα Νέφη
Διάσπαρτα Νέφη
 Ανεμοι από ΒΒΔ
Ανεμος: ΒΒΔ 11 km/h
Θερμοκρασία: 23°C
Σημείο Δρόσου: 15°C
Υγρασία: 61%
Βαρόμετρο: 1022 hPa
Νέφωση: Διάσπαρτα Νέφη
Ορατότητα: 10 km
Λεπτομέρειες Νεφών: Διάσπαρτα Νέφη 1524 m
2018/06/20 07:00 LWOH 200700Z 34006KT 320V020 9999 FEW050 23/15 Q1022
LBSF - Sofia/Bulgaria-Elev 595m
Απόσταση από σταθμό: Β 227km
Ενημερώθηκε: 20/06/2018 10:00
Διάσπαρτα Νέφη
Διάσπαρτα Νέφη
 Ανεμοι από ΔΒΔ
Ανεμος: ΔΒΔ 7 km/h
Θερμοκρασία: 20°C
Σημείο Δρόσου: 15°C
Υγρασία: 73%
Βαρόμετρο: 1022 hPa
Νέφωση: Διάσπαρτα Νέφη
Ορατότητα: 10 km
Λεπτομέρειες Νεφών: Διάσπαρτα Νέφη 2103 m
2018/06/20 07:00 LBSF 200700Z 29004KT 240V030 9999 FEW069 20/15 Q1022 NOSIG